createdAt,value
2019-05-13T00:01:34.858Z,99.90
2019-05-13T00:04:03.590Z,99.90
2019-05-13T00:06:30.276Z,99.90
2019-05-13T00:08:57.096Z,99.90
2019-05-13T00:11:24.015Z,99.90
2019-05-13T00:13:50.734Z,99.90
2019-05-13T00:16:17.442Z,99.90
2019-05-13T00:18:44.539Z,99.90
2019-05-13T00:21:11.176Z,99.90
2019-05-13T00:23:37.766Z,99.90
2019-05-13T00:26:04.495Z,99.90
2019-05-13T00:28:33.982Z,99.90
2019-05-13T00:31:00.016Z,99.90
2019-05-13T00:33:26.659Z,99.90
2019-05-13T00:35:53.526Z,99.90
2019-05-13T00:38:20.422Z,99.90
2019-05-13T00:40:47.198Z,99.90
2019-05-13T00:43:14.396Z,99.90
2019-05-13T00:45:44.337Z,99.90
2019-05-13T00:48:11.173Z,99.90
2019-05-13T00:50:37.903Z,99.90
2019-05-13T00:53:04.685Z,99.90
2019-05-13T00:55:34.297Z,99.90
2019-05-13T00:58:04.748Z,99.90
2019-05-13T01:00:33.893Z,99.90
2019-05-13T01:03:00.589Z,99.90
2019-05-13T01:05:27.197Z,99.90
2019-05-13T01:07:53.861Z,99.90
2019-05-13T01:10:20.799Z,99.90
2019-05-13T01:12:47.603Z,99.90
2019-05-13T01:15:14.721Z,99.90
2019-05-13T01:17:41.471Z,99.90
2019-05-13T01:20:08.633Z,99.90
2019-05-13T01:22:36.883Z,99.90
2019-05-13T01:25:04.601Z,99.90
2019-05-13T01:27:33.425Z,99.90
2019-05-13T01:29:59.871Z,99.90
2019-05-13T01:32:26.519Z,99.90
2019-05-13T01:34:53.854Z,99.90
2019-05-13T01:37:23.374Z,99.90
2019-05-13T01:39:49.539Z,99.90
2019-05-13T01:42:16.310Z,99.90
2019-05-13T01:44:43.765Z,99.90
2019-05-13T01:47:10.847Z,99.90
2019-05-13T01:49:37.726Z,99.90
2019-05-13T01:52:04.536Z,99.90
2019-05-13T01:54:33.638Z,99.90
2019-05-13T01:57:00.573Z,99.90
2019-05-13T01:59:27.214Z,99.90
2019-05-13T02:01:54.187Z,99.90
2019-05-13T02:04:20.934Z,99.90
2019-05-13T02:06:47.682Z,99.90
2019-05-13T02:09:14.360Z,99.90
2019-05-13T02:11:43.812Z,99.90
2019-05-13T02:14:09.708Z,99.90
2019-05-13T02:16:36.379Z,99.90
2019-05-13T02:19:03.829Z,99.90
2019-05-13T02:21:33.456Z,99.90
2019-05-13T02:23:59.304Z,99.90
2019-05-13T02:26:27.940Z,99.90
2019-05-13T02:28:54.568Z,99.90
2019-05-13T02:31:32.059Z,99.90
2019-05-13T02:33:52.913Z,99.90
2019-05-13T02:36:18.299Z,99.90
2019-05-13T02:38:45.863Z,99.90
2019-05-13T02:41:13.467Z,99.90
2019-05-13T02:43:42.142Z,99.90
2019-05-13T02:46:12.527Z,99.90
2019-05-13T02:48:37.500Z,99.90
2019-05-13T02:51:04.278Z,99.90
2019-05-13T02:53:33.511Z,99.90
2019-05-13T02:56:03.054Z,99.90
2019-05-13T02:58:32.942Z,99.90
2019-05-13T03:00:58.170Z,99.90
2019-05-13T03:03:26.371Z,99.90
2019-05-13T03:05:53.563Z,99.90
2019-05-13T03:08:38.552Z,99.90
2019-05-13T03:10:52.747Z,99.90
2019-05-13T03:13:18.206Z,99.90
2019-05-13T03:16:02.787Z,99.90
2019-05-13T03:18:33.328Z,99.90
2019-05-13T03:20:58.627Z,99.90
2019-05-13T03:23:25.247Z,99.90
2019-05-13T03:25:53.788Z,99.90
2019-05-13T03:28:22.345Z,99.90
2019-05-13T03:30:49.555Z,99.90
2019-05-13T03:33:20.119Z,99.90
2019-05-13T03:35:46.476Z,99.90
2019-05-13T03:38:13.097Z,99.90
2019-05-13T03:40:42.558Z,99.90
2019-05-13T03:43:12.608Z,99.90
2019-05-13T03:45:38.810Z,99.90
2019-05-13T03:48:05.624Z,99.90
2019-05-13T03:50:34.808Z,99.90
2019-05-13T03:53:02.990Z,99.90
2019-05-13T03:55:32.910Z,99.90
2019-05-13T03:58:02.987Z,99.90
2019-05-13T04:00:28.515Z,99.90
2019-05-13T04:02:55.364Z,99.90
2019-05-13T04:05:23.217Z,99.90
2019-05-13T04:07:52.260Z,99.90
2019-05-13T04:10:22.402Z,99.90
2019-05-13T04:12:47.502Z,99.90
2019-05-13T04:15:14.611Z,99.90
2019-05-13T04:17:42.793Z,99.90
2019-05-13T04:20:12.615Z,99.90
2019-05-13T04:22:38.493Z,99.90
2019-05-13T04:25:05.760Z,99.90
2019-05-13T04:27:34.429Z,99.90
2019-05-13T04:30:03.562Z,99.90
2019-05-13T04:32:33.296Z,99.90
2019-05-13T04:34:58.275Z,99.90
2019-05-13T04:37:24.998Z,99.90
2019-05-13T04:39:56.132Z,99.90
2019-05-13T04:42:23.144Z,99.90
2019-05-13T04:44:54.860Z,99.90
2019-05-13T04:47:22.935Z,99.90
2019-05-13T04:49:53.208Z,99.90
2019-05-13T04:52:18.508Z,99.90
2019-05-13T04:54:45.284Z,99.90
2019-05-13T04:57:12.481Z,99.90
2019-05-13T04:59:44.377Z,99.90
2019-05-13T05:02:40.083Z,99.90
2019-05-13T05:05:03.284Z,99.90
2019-05-13T05:07:34.035Z,99.90
2019-05-13T05:10:38.287Z,99.90
2019-05-13T05:13:38.789Z,99.90
2019-05-13T05:16:28.637Z,99.90
2019-05-13T05:19:24.137Z,99.90
2019-05-13T05:22:03.991Z,99.90
2019-05-13T05:24:52.054Z,99.90
2019-05-13T05:27:46.093Z,99.90
2019-05-13T05:30:51.981Z,99.90
2019-05-13T05:33:45.523Z,99.90
2019-05-13T05:36:34.214Z,99.90
2019-05-13T05:39:07.575Z,99.90
2019-05-13T05:41:35.743Z,99.90
2019-05-13T05:44:05.765Z,99.90
2019-05-13T05:46:38.988Z,99.90
2019-05-13T05:49:08.456Z,99.90
2019-05-13T05:51:37.521Z,99.90
2019-05-13T05:54:04.357Z,99.90
2019-05-13T05:56:32.613Z,99.90
2019-05-13T05:59:02.919Z,99.90
2019-05-13T06:01:33.153Z,99.90
2019-05-13T06:04:01.516Z,99.90
2019-05-13T06:06:29.003Z,99.90
2019-05-13T06:08:55.728Z,99.90
2019-05-13T06:11:22.486Z,99.90
2019-05-13T06:13:52.153Z,99.90
2019-05-13T06:16:18.056Z,99.90
2019-05-13T06:18:44.908Z,99.90
2019-05-13T06:21:12.280Z,99.90
2019-05-13T06:23:41.703Z,99.90
2019-05-13T06:26:07.623Z,99.90
2019-05-13T06:28:34.595Z,99.90
2019-05-13T06:31:02.563Z,99.90
2019-05-13T06:33:31.621Z,99.90
2019-05-13T06:36:01.054Z,99.90
2019-05-13T06:38:27.275Z,99.90
2019-05-13T06:41:03.334Z,99.90
2019-05-13T06:43:22.541Z,99.90
2019-05-13T06:45:51.391Z,99.90
2019-05-13T06:48:18.029Z,99.90
2019-05-13T06:50:44.765Z,99.90
2019-05-13T06:53:12.640Z,99.90
2019-05-13T06:55:41.719Z,99.90
2019-05-13T06:58:08.206Z,99.90
2019-05-13T07:00:35.183Z,99.90
2019-05-13T07:03:02.450Z,99.90
2019-05-13T07:05:31.669Z,99.90
2019-05-13T07:08:02.562Z,99.90
2019-05-13T07:10:29.196Z,99.90
2019-05-13T07:12:56.118Z,99.40
2019-05-13T07:15:22.955Z,99.20
2019-05-13T07:17:52.001Z,98.60
2019-05-13T07:20:18.682Z,98.30
2019-05-13T07:22:45.688Z,97.90
2019-05-13T07:25:12.518Z,97.80
2019-05-13T07:27:39.246Z,97.10
2019-05-13T07:30:06.364Z,96.90
2019-05-13T07:32:33.813Z,97.00
2019-05-13T07:35:03.886Z,96.50
2019-05-13T07:37:31.779Z,96.00
2019-05-13T07:39:59.199Z,95.70
2019-05-13T07:42:25.894Z,95.20
2019-05-13T07:44:54.544Z,95.10
2019-05-13T07:47:22.260Z,94.70
2019-05-13T07:49:51.593Z,94.90
2019-05-13T07:52:17.911Z,94.80
2019-05-13T07:54:44.658Z,94.90
2019-05-13T07:57:12.478Z,94.50
2019-05-13T07:59:39.054Z,94.90
2019-05-13T08:02:05.677Z,94.70
2019-05-13T08:04:33.672Z,93.30
2019-05-13T08:07:14.737Z,93.10
2019-05-13T08:09:42.023Z,92.90
2019-05-13T08:12:13.894Z,92.30
2019-05-13T08:14:43.318Z,91.40
2019-05-13T08:17:07.602Z,91.80
2019-05-13T08:19:34.334Z,91.60
2019-05-13T08:22:02.204Z,91.20
2019-05-13T08:24:31.431Z,90.60
2019-05-13T08:27:02.119Z,90.10
2019-05-13T08:29:28.460Z,88.20
2019-05-13T08:31:55.090Z,87.30
2019-05-13T08:34:22.649Z,86.20
2019-05-13T08:36:51.426Z,85.00
2019-05-13T08:39:18.040Z,83.80
2019-05-13T08:41:44.806Z,84.40
2019-05-13T08:44:12.305Z,82.40
2019-05-13T08:46:41.382Z,82.40
2019-05-13T08:49:07.996Z,81.50
2019-05-13T08:51:35.010Z,81.10
2019-05-13T08:54:02.525Z,79.60
2019-05-13T08:56:32.633Z,80.90
2019-05-13T08:59:01.062Z,81.30
2019-05-13T09:01:27.541Z,81.10
2019-05-13T09:03:54.477Z,81.10
2019-05-13T09:06:22.106Z,79.50
2019-05-13T09:08:53.280Z,76.70
2019-05-13T09:11:17.626Z,78.30
2019-05-13T09:13:44.539Z,77.30
2019-05-13T09:16:13.399Z,75.60
2019-05-13T09:18:42.447Z,73.20
2019-05-13T09:21:08.515Z,75.20
2019-05-13T09:23:35.245Z,74.60
2019-05-13T09:26:02.727Z,73.90
2019-05-13T09:28:32.282Z,71.60
2019-05-13T09:30:58.365Z,70.80
2019-05-13T09:33:25.110Z,70.90
2019-05-13T09:35:53.514Z,68.80
2019-05-13T09:38:22.194Z,68.80
2019-05-13T09:40:48.841Z,68.20
2019-05-13T09:43:15.852Z,67.90
2019-05-13T09:45:42.707Z,66.80
2019-05-13T09:48:09.391Z,64.40
2019-05-13T09:50:36.369Z,64.50
2019-05-13T09:53:03.236Z,65.70
2019-05-13T09:55:32.819Z,64.90
2019-05-13T09:58:02.222Z,65.60
2019-05-13T10:00:28.166Z,64.30
2019-05-13T10:02:55.153Z,59.70
2019-05-13T10:05:22.511Z,59.60
2019-05-13T10:07:49.602Z,61.20
2019-05-13T10:10:16.461Z,62.40
2019-05-13T10:12:43.226Z,62.10
2019-05-13T10:15:12.587Z,61.50
2019-05-13T10:17:42.458Z,62.40
2019-05-13T10:20:08.778Z,61.50
2019-05-13T10:22:36.057Z,61.40
2019-05-13T10:25:05.573Z,60.00
2019-05-13T10:27:32.822Z,59.90
2019-05-13T10:30:00.071Z,59.70
2019-05-13T10:32:26.807Z,59.30
2019-05-13T10:34:54.492Z,58.80
2019-05-13T10:37:22.042Z,58.00
2019-05-13T10:39:51.121Z,57.10
2019-05-13T10:42:18.392Z,56.60
2019-05-13T10:44:45.029Z,58.10
2019-05-13T10:47:12.188Z,56.20
2019-05-13T10:49:41.880Z,56.70
2019-05-13T10:52:07.799Z,56.40
2019-05-13T10:54:34.543Z,56.30
2019-05-13T10:57:03.835Z,57.00
2019-05-13T10:59:29.855Z,56.90
2019-05-13T11:01:57.638Z,55.20
2019-05-13T11:04:24.671Z,54.70
2019-05-13T11:06:52.574Z,54.30
2019-05-13T11:09:21.855Z,55.60
2019-05-13T11:11:49.109Z,56.50
2019-05-13T11:14:15.984Z,56.00
2019-05-13T11:16:42.898Z,54.70
2019-05-13T11:19:11.912Z,54.50
2019-05-13T11:21:38.596Z,54.90
2019-05-13T11:24:05.391Z,54.20
2019-05-13T11:26:36.085Z,53.40
2019-05-13T11:29:02.765Z,52.80
2019-05-13T11:31:32.523Z,53.20
2019-05-13T11:33:57.577Z,53.20
2019-05-13T11:36:24.304Z,53.30
2019-05-13T11:38:53.118Z,52.80
2019-05-13T11:41:22.590Z,52.60
2019-05-13T11:44:08.088Z,52.20
2019-05-13T11:46:16.511Z,52.60
2019-05-13T11:48:43.329Z,51.50
2019-05-13T11:51:12.801Z,51.30
2019-05-13T11:53:38.631Z,50.70
2019-05-13T11:56:05.351Z,50.20
2019-05-13T11:58:32.594Z,51.30
2019-05-13T12:01:02.539Z,53.40
2019-05-13T12:03:32.182Z,52.10
2019-05-13T12:05:57.583Z,53.00
2019-05-13T12:08:24.385Z,51.90
2019-05-13T12:10:52.001Z,50.80
2019-05-13T12:13:22.696Z,50.80
2019-05-13T12:15:50.050Z,50.70
2019-05-13T12:18:17.795Z,50.00
2019-05-13T12:20:45.003Z,51.10
2019-05-13T12:23:12.996Z,51.80
2019-05-13T12:25:43.776Z,51.00
2019-05-13T12:28:11.372Z,51.60
2019-05-13T12:30:38.464Z,51.00
2019-05-13T12:33:05.410Z,52.20
2019-05-13T12:35:33.277Z,51.30
2019-05-13T12:38:00.003Z,51.60
2019-05-13T12:40:27.064Z,50.20
2019-05-13T12:42:56.191Z,49.30
2019-05-13T12:45:23.388Z,50.10
2019-05-13T12:47:53.079Z,50.60
2019-05-13T12:50:23.687Z,51.00
2019-05-13T12:52:50.934Z,52.20
2019-05-13T12:55:21.232Z,52.70
2019-05-13T12:57:47.733Z,53.50
2019-05-13T13:00:16.123Z,51.80
2019-05-13T13:02:49.989Z,52.70
2019-05-13T13:05:19.598Z,51.80
2019-05-13T13:07:42.531Z,51.50
2019-05-13T13:10:14.204Z,53.10
2019-05-13T13:12:37.812Z,54.20
2019-05-13T13:15:32.870Z,54.00
2019-05-13T13:17:35.862Z,54.00
2019-05-13T13:20:09.429Z,53.00
2019-05-13T13:22:33.637Z,53.00
2019-05-13T13:25:07.836Z,53.00
2019-05-13T13:27:59.937Z,53.20
2019-05-13T13:30:08.609Z,53.00
2019-05-13T13:32:34.345Z,52.40
2019-05-13T13:35:03.702Z,52.20
2019-05-13T13:37:33.771Z,51.30
2019-05-13T13:39:58.713Z,51.10
2019-05-13T13:42:25.591Z,51.80
2019-05-13T13:44:53.832Z,50.40
2019-05-13T13:47:24.302Z,50.40
2019-05-13T13:49:53.303Z,51.10
2019-05-13T13:52:18.867Z,51.50
2019-05-13T13:54:45.532Z,51.50
2019-05-13T13:57:13.497Z,51.30
2019-05-13T14:00:14.809Z,49.60
2019-05-13T14:02:13.060Z,50.00
2019-05-13T14:04:37.834Z,50.10
2019-05-13T14:09:33.386Z,49.60
2019-05-13T14:12:03.682Z,48.70
2019-05-13T14:14:31.963Z,49.40
2019-05-13T14:16:59.188Z,48.80
2019-05-13T14:19:25.994Z,49.80
2019-05-13T14:21:52.787Z,48.80
2019-05-13T14:24:21.583Z,48.90
2019-05-13T14:26:48.484Z,49.00
2019-05-13T14:29:15.086Z,49.00
2019-05-13T14:31:42.022Z,50.20
2019-05-13T14:34:11.398Z,50.20
2019-05-13T14:36:37.316Z,50.00
2019-05-13T14:39:05.769Z,50.30
2019-05-13T14:41:32.515Z,49.80
2019-05-13T14:43:59.263Z,50.00
2019-05-13T14:46:43.086Z,49.60
2019-05-13T14:48:54.550Z,49.00
2019-05-13T14:51:21.829Z,49.90
2019-05-13T14:53:48.762Z,50.90
2019-05-13T14:56:15.482Z,50.60
2019-05-13T14:58:42.261Z,50.70
2019-05-13T15:01:15.704Z,51.50
2019-05-13T15:03:37.480Z,51.30
2019-05-13T15:06:04.500Z,52.20
2019-05-13T15:08:32.961Z,51.70
2019-05-13T15:11:01.942Z,51.00
2019-05-13T15:13:28.569Z,50.80
2019-05-13T15:15:56.016Z,51.30
2019-05-13T15:18:22.634Z,50.90
2019-05-13T15:20:49.412Z,50.80
2019-05-13T15:23:16.255Z,52.00
2019-05-13T15:25:44.798Z,52.60
2019-05-13T15:28:12.082Z,52.20
2019-05-13T15:30:38.852Z,52.50
2019-05-13T15:33:05.486Z,52.80
2019-05-13T15:35:32.418Z,51.80
2019-05-13T15:37:59.333Z,52.30
2019-05-13T15:40:27.652Z,53.00
2019-05-13T15:42:54.346Z,52.40
2019-05-13T15:45:21.424Z,53.20
2019-05-13T15:47:48.146Z,53.70
2019-05-13T15:50:14.845Z,53.70
2019-05-13T15:52:43.239Z,53.20
2019-05-13T15:55:11.979Z,53.50
2019-05-13T15:57:38.700Z,54.10
2019-05-13T16:00:06.876Z,53.50
2019-05-13T16:02:33.717Z,54.30
2019-05-13T16:05:03.924Z,54.00
2019-05-13T16:07:30.424Z,54.00
2019-05-13T16:09:57.063Z,54.30
2019-05-13T16:12:23.688Z,53.50
2019-05-13T16:14:52.592Z,53.20
2019-05-13T16:17:23.056Z,53.30
2019-05-13T16:19:47.963Z,53.10
2019-05-13T16:22:14.676Z,53.30
2019-05-13T16:24:41.619Z,53.50
2019-05-13T16:27:11.836Z,53.10
2019-05-13T16:29:42.351Z,53.50
2019-05-13T16:32:11.818Z,53.50
2019-05-13T16:34:37.946Z,54.10
2019-05-13T16:37:17.801Z,53.00
2019-05-13T16:39:45.183Z,53.00
2019-05-13T16:42:14.236Z,52.20
2019-05-13T16:44:43.011Z,52.70
2019-05-13T16:47:12.149Z,52.90
2019-05-13T16:49:41.103Z,53.80
2019-05-13T16:52:11.474Z,53.70
2019-05-13T16:54:42.333Z,54.50
2019-05-13T16:57:07.549Z,54.00
2019-05-13T16:59:34.927Z,54.70
2019-05-13T17:02:02.098Z,55.00
2019-05-13T17:04:29.133Z,55.00
2019-05-13T17:06:56.211Z,55.30
2019-05-13T17:09:22.861Z,55.60
2019-05-13T17:11:51.818Z,55.40
2019-05-13T17:14:18.240Z,56.20
2019-05-13T17:16:44.914Z,55.10
2019-05-13T17:19:12.235Z,55.90
2019-05-13T17:21:41.114Z,56.30
2019-05-13T17:24:08.238Z,56.30
2019-05-13T17:26:34.953Z,56.80
2019-05-13T17:29:01.862Z,57.80
2019-05-13T17:31:28.450Z,56.20
2019-05-13T17:33:57.101Z,56.50
2019-05-13T17:36:24.058Z,56.80
2019-05-13T17:38:52.102Z,56.90
2019-05-13T17:41:21.231Z,57.30
2019-05-13T17:43:47.861Z,57.30
2019-05-13T17:46:14.535Z,57.30
2019-05-13T17:48:41.677Z,57.10
2019-05-13T17:51:12.690Z,57.20
2019-05-13T17:53:41.224Z,57.80
2019-05-13T17:56:11.198Z,58.00
2019-05-13T17:58:38.081Z,57.90
2019-05-13T18:01:04.735Z,57.60
2019-05-13T18:03:32.271Z,58.00
2019-05-13T18:05:59.295Z,57.80
2019-05-13T18:08:26.347Z,58.00
2019-05-13T18:10:53.103Z,58.20
2019-05-13T18:13:21.542Z,58.40
2019-05-13T18:15:48.427Z,58.30
2019-05-13T18:18:15.153Z,58.10
2019-05-13T18:20:42.026Z,58.40
2019-05-13T18:23:09.171Z,58.40
2019-05-13T18:25:36.309Z,58.90
2019-05-13T18:28:03.495Z,58.70
2019-05-13T18:30:31.791Z,59.40
2019-05-13T18:33:01.050Z,59.20
2019-05-13T18:35:28.494Z,59.50
2019-05-13T18:38:01.181Z,59.80
2019-05-13T18:40:27.820Z,59.60
2019-05-13T18:42:54.802Z,59.20
2019-05-13T18:45:22.165Z,59.50
2019-05-13T18:47:51.352Z,59.50
2019-05-13T18:50:18.428Z,59.60
2019-05-13T18:52:45.074Z,59.80
2019-05-13T18:55:12.572Z,60.00
2019-05-13T18:57:39.673Z,60.90
2019-05-13T19:00:07.055Z,61.30
2019-05-13T19:02:33.776Z,62.60
2019-05-13T19:05:01.479Z,64.90
2019-05-13T19:07:31.375Z,66.90
2019-05-13T19:09:57.872Z,68.00
2019-05-13T19:12:25.804Z,69.30
2019-05-13T19:14:55.351Z,69.80
2019-05-13T19:17:22.470Z,69.70
2019-05-13T19:19:51.347Z,70.30
2019-05-13T19:22:17.749Z,70.70
2019-05-13T19:24:44.406Z,70.40
2019-05-13T19:27:12.031Z,70.60
2019-05-13T19:29:38.976Z,71.40
2019-05-13T19:32:05.742Z,71.70
2019-05-13T19:34:32.643Z,72.30
2019-05-13T19:37:02.157Z,72.10
2019-05-13T19:39:31.044Z,72.50
2019-05-13T19:41:57.829Z,72.90
2019-05-13T19:44:24.666Z,72.20
2019-05-13T19:46:52.318Z,72.20
2019-05-13T19:49:29.715Z,72.30
2019-05-13T19:51:48.191Z,72.80
2019-05-13T19:54:15.011Z,72.90
2019-05-13T19:56:41.941Z,72.40
2019-05-13T19:59:09.482Z,72.30
2019-05-13T20:01:36.229Z,72.00
2019-05-13T20:04:02.883Z,72.20
2019-05-13T20:06:31.968Z,72.90
2019-05-13T20:09:01.267Z,72.70
2019-05-13T20:11:27.653Z,72.10
2019-05-13T20:13:54.290Z,72.50
2019-05-13T20:16:22.167Z,73.10
2019-05-13T20:19:02.856Z,73.00
2019-05-13T20:21:43.374Z,72.90
2019-05-13T20:24:11.845Z,72.80
2019-05-13T20:26:38.837Z,73.00
2019-05-13T20:29:05.775Z,73.60
2019-05-13T20:31:33.563Z,74.10
2019-05-13T20:34:01.713Z,74.00
2019-05-13T20:36:28.496Z,74.00
2019-05-13T20:38:55.289Z,74.30
2019-05-13T20:41:22.493Z,75.20
2019-05-13T20:43:51.889Z,75.60
2019-05-13T20:46:17.835Z,76.00
2019-05-13T20:48:44.482Z,76.60
2019-05-13T20:51:11.450Z,76.80
2019-05-13T20:53:41.269Z,77.50
2019-05-13T20:56:08.405Z,77.60
2019-05-13T20:58:35.176Z,77.50
2019-05-13T21:01:02.506Z,77.80
2019-05-13T21:03:31.417Z,78.40
2019-05-13T21:05:59.200Z,79.30
2019-05-13T21:08:25.918Z,80.20
2019-05-13T21:10:52.847Z,81.10
2019-05-13T21:13:21.194Z,81.50
2019-05-13T21:15:48.131Z,81.70
2019-05-13T21:18:15.190Z,81.90
2019-05-13T21:20:42.064Z,82.30
2019-05-13T21:23:11.135Z,83.10
2019-05-13T21:25:37.282Z,83.60
2019-05-13T21:28:04.161Z,84.30
2019-05-13T21:30:30.788Z,85.40
2019-05-13T21:32:57.646Z,86.10
2019-05-13T21:35:24.269Z,86.60
2019-05-13T21:37:51.191Z,86.90
2019-05-13T21:40:18.246Z,87.60
2019-05-13T21:42:45.181Z,88.70
2019-05-13T21:45:12.134Z,89.10
2019-05-13T21:47:38.931Z,89.70
2019-05-13T21:50:06.239Z,90.00
2019-05-13T21:52:32.958Z,90.10
2019-05-13T21:55:01.734Z,90.30
2019-05-13T21:57:28.181Z,90.40
2019-05-13T21:59:55.031Z,90.60
2019-05-13T22:02:23.437Z,91.10
2019-05-13T22:04:51.876Z,91.60
2019-05-13T22:07:18.766Z,91.90
2019-05-13T22:09:45.854Z,92.00
2019-05-13T22:12:12.601Z,92.20
2019-05-13T22:14:41.220Z,92.60
2019-05-13T22:17:08.991Z,92.90
2019-05-13T22:19:35.823Z,93.30
2019-05-13T22:22:02.601Z,93.50
2019-05-13T22:24:31.245Z,93.70
2019-05-13T22:26:57.948Z,94.00
2019-05-13T22:29:25.756Z,94.20
2019-05-13T22:31:54.258Z,94.20
2019-05-13T22:34:21.998Z,94.20
2019-05-13T22:36:48.740Z,94.50
2019-05-13T22:39:15.557Z,94.50
2019-05-13T22:41:42.342Z,94.60
2019-05-13T22:44:11.420Z,95.20
2019-05-13T22:46:37.737Z,95.10
2019-05-13T22:49:04.606Z,95.20
2019-05-13T22:51:32.003Z,95.40
2019-05-13T22:53:58.819Z,95.60
2019-05-13T22:56:25.434Z,95.80
2019-05-13T22:58:52.074Z,96.10
2019-05-13T23:01:32.504Z,96.00
2019-05-13T23:03:59.116Z,95.80
2019-05-13T23:06:25.746Z,95.90
2019-05-13T23:08:52.372Z,96.00
2019-05-13T23:11:21.766Z,96.00
2019-05-13T23:13:47.800Z,96.00
2019-05-13T23:16:14.518Z,96.10
2019-05-13T23:18:42.060Z,96.50
2019-05-13T23:21:11.345Z,96.50
2019-05-13T23:23:37.528Z,96.50
2019-05-13T23:26:04.128Z,96.60
2019-05-13T23:28:32.271Z,96.70
2019-05-13T23:31:01.695Z,96.80
2019-05-13T23:33:28.546Z,96.60
2019-05-13T23:35:55.289Z,96.60
2019-05-13T23:38:21.910Z,96.60
2019-05-13T23:40:48.693Z,96.60
2019-05-13T23:43:15.294Z,96.70
2019-05-13T23:45:41.888Z,96.70
2019-05-13T23:48:08.628Z,96.70
2019-05-13T23:50:35.370Z,96.50
2019-05-13T23:53:02.090Z,96.30
2019-05-13T23:55:31.971Z,96.20
2019-05-13T23:57:58.296Z,96.20
